createdAt,value
2022-11-09T00:00:02.922Z,74.05
2022-11-09T00:03:05.600Z,74.16
2022-11-09T00:06:10.295Z,74.38
2022-11-09T00:09:12.904Z,74.67
2022-11-09T00:12:15.588Z,74.47
2022-11-09T00:15:18.305Z,74.32
2022-11-09T00:18:20.962Z,74.86
2022-11-09T00:21:26.406Z,75.07
2022-11-09T00:24:29.084Z,75.32
2022-11-09T00:27:32.005Z,75.07
2022-11-09T00:30:34.773Z,75.21
2022-11-09T00:33:37.708Z,75.01
2022-11-09T00:36:41.939Z,74.76
2022-11-09T00:39:44.979Z,74.97
2022-11-09T00:42:47.770Z,75.21
2022-11-09T00:45:50.497Z,75.42
2022-11-09T00:48:55.670Z,74.80
2022-11-09T00:51:59.653Z,74.59
2022-11-09T00:55:02.191Z,75.12
2022-11-09T00:58:05.269Z,74.97
2022-11-09T01:01:11.227Z,75.12
2022-11-09T01:04:13.865Z,75.06
2022-11-09T01:07:17.964Z,75.27
2022-11-09T01:10:20.690Z,75.11
2022-11-09T01:13:23.496Z,74.64
2022-11-09T01:16:26.063Z,73.25
2022-11-09T01:19:28.646Z,73.79
2022-11-09T01:22:32.684Z,73.93
2022-11-09T01:25:35.356Z,74.17
2022-11-09T01:28:38.516Z,74.64
2022-11-09T01:31:41.175Z,74.08
2022-11-09T01:34:43.804Z,74.24
2022-11-09T01:37:47.793Z,74.31
2022-11-09T01:40:50.413Z,74.72
2022-11-09T01:44:07.837Z,74.51
2022-11-09T01:47:24.781Z,74.91
2022-11-09T01:50:35.876Z,75.02
2022-11-09T01:53:43.881Z,74.53
2022-11-09T01:56:47.428Z,74.99
2022-11-09T01:59:51.313Z,74.58
2022-11-09T02:02:57.563Z,74.48
2022-11-09T02:06:00.882Z,74.33
2022-11-09T02:09:09.480Z,73.09
2022-11-09T02:12:12.159Z,73.28
2022-11-09T02:15:14.933Z,72.79
2022-11-09T02:18:17.979Z,73.02
2022-11-09T02:21:22.692Z,72.03
2022-11-09T02:24:25.783Z,72.17
2022-11-09T02:27:28.425Z,73.02
2022-11-09T02:30:31.045Z,72.43
2022-11-09T02:33:43.467Z,72.12
2022-11-09T02:36:47.664Z,71.90
2022-11-09T02:39:50.263Z,71.91
2022-11-09T02:42:53.352Z,71.29
2022-11-09T02:45:56.044Z,71.55
2022-11-09T02:48:58.685Z,71.51
2022-11-09T02:52:02.775Z,71.49
2022-11-09T02:55:05.856Z,71.72
2022-11-09T02:58:08.516Z,71.30
2022-11-09T03:01:11.178Z,71.06
2022-11-09T03:04:13.878Z,71.00
2022-11-09T03:07:17.994Z,71.01
2022-11-09T03:10:20.710Z,71.22
2022-11-09T03:13:23.447Z,71.81
2022-11-09T03:16:26.035Z,72.34
2022-11-09T03:19:28.625Z,72.00
2022-11-09T03:22:32.615Z,73.36
2022-11-09T03:25:35.275Z,73.70
2022-11-09T03:28:37.897Z,73.00
2022-11-09T03:31:40.468Z,73.29
2022-11-09T03:34:43.120Z,73.00
2022-11-09T03:37:47.153Z,74.55
2022-11-09T03:40:49.720Z,76.45
2022-11-09T03:43:52.335Z,78.69
2022-11-09T03:46:54.933Z,79.37
2022-11-09T03:49:57.653Z,80.03
2022-11-09T03:53:02.186Z,80.38
2022-11-09T03:56:04.804Z,80.94
2022-11-09T03:59:07.407Z,81.13
2022-11-09T04:02:10.095Z,82.84
2022-11-09T04:05:13.268Z,84.47
2022-11-09T04:08:17.241Z,84.70
2022-11-09T04:11:19.885Z,85.03
2022-11-09T04:14:22.671Z,85.56
2022-11-09T04:17:25.361Z,85.06
2022-11-09T04:20:29.377Z,86.08
2022-11-09T04:23:33.477Z,86.41
2022-11-09T04:26:36.149Z,86.60
2022-11-09T04:29:38.842Z,87.14
2022-11-09T04:32:41.427Z,88.09
2022-11-09T04:35:44.098Z,88.48
2022-11-09T04:38:48.004Z,89.04
2022-11-09T04:41:50.599Z,89.53
2022-11-09T04:44:53.349Z,89.19
2022-11-09T04:47:58.639Z,88.94
2022-11-09T04:51:02.247Z,89.92
2022-11-09T04:54:06.203Z,90.39
2022-11-09T04:57:08.797Z,90.11
2022-11-09T05:00:12.127Z,90.89
2022-11-09T05:03:14.742Z,90.79
2022-11-09T05:06:35.677Z,90.37
2022-11-09T05:09:39.703Z,89.77
2022-11-09T05:12:45.722Z,90.22
2022-11-09T05:15:48.722Z,89.89
2022-11-09T05:18:51.782Z,90.01
2022-11-09T05:21:54.442Z,89.75
2022-11-09T05:24:57.370Z,89.70
2022-11-09T05:27:59.999Z,89.53
2022-11-09T05:31:02.668Z,89.32
2022-11-09T05:34:06.225Z,89.44
2022-11-09T05:37:08.920Z,90.05
2022-11-09T05:40:13.253Z,90.06
2022-11-09T05:43:17.528Z,90.10
2022-11-09T05:46:20.924Z,90.22
2022-11-09T05:49:23.746Z,90.67
2022-11-09T05:52:26.316Z,90.83
2022-11-09T05:55:30.402Z,91.04
2022-11-09T05:58:37.975Z,91.06
2022-11-09T06:01:40.636Z,90.17
2022-11-09T06:04:43.341Z,91.07
2022-11-09T06:07:45.938Z,90.68
2022-11-09T06:10:49.897Z,91.15
2022-11-09T06:13:52.889Z,90.70
2022-11-09T06:16:55.488Z,90.75
2022-11-09T06:19:58.150Z,90.64
2022-11-09T06:23:03.908Z,90.62
2022-11-09T06:26:10.272Z,90.22
2022-11-09T06:29:12.891Z,90.04
2022-11-09T06:32:15.471Z,90.30
2022-11-09T06:35:18.253Z,89.82
2022-11-09T06:38:20.842Z,90.21
2022-11-09T06:41:24.744Z,90.53
2022-11-09T06:44:30.208Z,90.33
2022-11-09T06:47:33.939Z,90.09
2022-11-09T06:50:36.742Z,89.16
2022-11-09T06:53:41.347Z,89.79
2022-11-09T06:56:45.370Z,89.56
2022-11-09T06:59:48.742Z,89.84
2022-11-09T07:02:51.652Z,88.50
2022-11-09T07:05:54.247Z,88.46
2022-11-09T07:08:57.151Z,89.40
2022-11-09T07:12:01.369Z,88.97
2022-11-09T07:15:04.871Z,88.64
2022-11-09T07:18:09.350Z,89.23
2022-11-09T07:21:14.354Z,88.51
2022-11-09T07:24:17.388Z,89.19
2022-11-09T07:27:24.923Z,89.94
2022-11-09T07:30:30.388Z,91.25
2022-11-09T07:33:33.423Z,90.11
2022-11-09T07:36:36.748Z,91.19
2022-11-09T07:39:39.477Z,91.48
2022-11-09T07:42:43.498Z,91.00
2022-11-09T07:45:46.105Z,90.81
2022-11-09T07:48:48.729Z,90.25
2022-11-09T07:51:51.312Z,90.88
2022-11-09T07:54:53.974Z,90.03
2022-11-09T07:57:58.744Z,89.32
2022-11-09T08:01:01.331Z,89.57
2022-11-09T08:04:04.193Z,89.45
2022-11-09T08:07:06.830Z,90.44
2022-11-09T08:10:10.313Z,89.94
2022-11-09T08:13:15.195Z,90.09
2022-11-09T08:16:17.888Z,89.44
2022-11-09T08:19:20.421Z,88.82
2022-11-09T08:22:23.046Z,88.65
2022-11-09T08:25:26.120Z,88.26
2022-11-09T08:28:30.214Z,88.61
2022-11-09T08:31:33.221Z,88.04
2022-11-09T08:34:35.963Z,87.96
2022-11-09T08:37:39.170Z,87.96
2022-11-09T08:40:41.727Z,87.57
2022-11-09T08:43:45.723Z,87.43
2022-11-09T08:46:48.284Z,86.82
2022-11-09T08:49:50.885Z,85.81
2022-11-09T08:52:53.558Z,84.37
2022-11-09T08:55:56.418Z,83.01
2022-11-09T08:59:00.387Z,82.12
2022-11-09T09:02:03.468Z,82.08
2022-11-09T09:05:06.807Z,81.17
2022-11-09T09:08:11.619Z,81.37
2022-11-09T09:11:14.203Z,81.21
2022-11-09T09:14:18.156Z,81.11
2022-11-09T09:17:20.809Z,81.70
2022-11-09T09:20:23.453Z,81.66
2022-11-09T09:23:26.119Z,81.32
2022-11-09T09:26:28.734Z,80.96
2022-11-09T09:29:32.685Z,80.39
2022-11-09T09:32:35.301Z,79.89
2022-11-09T09:35:37.908Z,78.95
2022-11-09T09:38:40.480Z,79.11
2022-11-09T09:41:47.720Z,78.10
2022-11-09T09:44:55.453Z,76.63
2022-11-09T09:48:01.685Z,75.59
2022-11-09T09:51:10.547Z,75.78
2022-11-09T09:54:16.059Z,74.59
2022-11-09T09:57:21.208Z,74.64
2022-11-09T10:00:27.194Z,75.17
2022-11-09T10:03:29.819Z,73.94
2022-11-09T10:06:40.411Z,74.04
2022-11-09T10:10:04.976Z,72.40
2022-11-09T10:13:34.810Z,72.08
2022-11-09T10:16:45.461Z,71.18
2022-11-09T10:19:57.323Z,70.23
2022-11-09T10:23:14.785Z,70.14
2022-11-09T10:26:20.002Z,70.50
2022-11-09T10:29:25.304Z,69.65
2022-11-09T10:32:31.342Z,69.73
2022-11-09T10:35:37.863Z,70.82
2022-11-09T10:38:45.027Z,70.29
2022-11-09T10:41:47.787Z,69.66
2022-11-09T10:44:50.498Z,68.97
2022-11-09T10:47:54.859Z,67.38
2022-11-09T10:50:58.378Z,67.50
2022-11-09T10:54:16.068Z,67.65
2022-11-09T10:57:20.028Z,67.77
2022-11-09T11:00:23.448Z,67.52
2022-11-09T11:03:27.303Z,66.76
2022-11-09T11:06:31.516Z,67.48
2022-11-09T11:09:34.405Z,66.85
2022-11-09T11:12:37.161Z,66.58
2022-11-09T11:15:41.260Z,65.73
2022-11-09T11:18:47.562Z,64.57
2022-11-09T11:22:23.039Z,63.18
2022-11-09T11:25:26.479Z,63.38
2022-11-09T11:28:36.009Z,63.68
2022-11-09T11:31:39.597Z,63.95
2022-11-09T11:34:59.822Z,65.26
2022-11-09T11:38:12.074Z,66.42
2022-11-09T11:41:42.105Z,66.39
2022-11-09T11:45:18.516Z,67.37
2022-11-09T11:48:39.700Z,68.28
2022-11-09T11:51:48.824Z,68.58
2022-11-09T11:55:08.780Z,68.14
2022-11-09T11:58:24.411Z,67.47
2022-11-09T12:01:43.738Z,66.85
2022-11-09T12:05:01.390Z,67.38
2022-11-09T12:08:12.161Z,66.83
2022-11-09T12:11:19.608Z,65.63
2022-11-09T12:14:35.276Z,65.12
2022-11-09T12:17:43.495Z,64.30
2022-11-09T12:21:04.768Z,64.94
2022-11-09T12:24:17.239Z,65.12
2022-11-09T12:27:35.083Z,63.85
2022-11-09T12:30:45.774Z,64.73
2022-11-09T12:33:52.057Z,65.16
2022-11-09T12:36:57.490Z,64.55
2022-11-09T12:40:08.544Z,65.16
2022-11-09T12:43:16.559Z,63.25
2022-11-09T12:46:20.700Z,62.32
2022-11-09T12:49:32.067Z,62.35
2022-11-09T12:52:34.818Z,62.09
2022-11-09T12:55:43.653Z,63.11
2022-11-09T12:58:46.585Z,62.62
2022-11-09T13:01:54.208Z,62.16
2022-11-09T13:04:58.502Z,62.54
2022-11-09T13:08:02.885Z,62.51
2022-11-09T13:11:12.441Z,62.22
2022-11-09T13:14:36.063Z,63.16
2022-11-09T13:17:55.027Z,63.64
2022-11-09T13:20:58.196Z,63.32
2022-11-09T13:24:27.124Z,63.43
2022-11-09T13:27:39.896Z,65.11
2022-11-09T13:30:43.360Z,63.31
2022-11-09T13:33:45.985Z,64.28
2022-11-09T13:37:22.333Z,64.04
2022-11-09T13:40:45.762Z,64.96
2022-11-09T13:44:08.367Z,65.68
2022-11-09T13:47:22.448Z,65.70
2022-11-09T13:50:26.291Z,66.43
2022-11-09T13:53:31.865Z,66.58
2022-11-09T13:56:37.650Z,67.08
2022-11-09T13:59:46.823Z,67.76
2022-11-09T14:02:54.270Z,68.15
2022-11-09T14:05:59.576Z,68.55
2022-11-09T14:09:02.496Z,69.10
2022-11-09T14:12:12.897Z,69.61
2022-11-09T14:15:28.554Z,71.00
2022-11-09T14:18:40.079Z,71.52
2022-11-09T14:21:46.652Z,71.89
2022-11-09T14:24:49.829Z,72.23
2022-11-09T14:27:57.303Z,72.61
2022-11-09T14:31:02.040Z,72.41
2022-11-09T14:34:06.046Z,72.92
2022-11-09T14:37:08.788Z,74.25
2022-11-09T14:40:18.571Z,75.15
2022-11-09T14:43:28.542Z,74.94
2022-11-09T14:46:32.897Z,75.35
2022-11-09T14:49:35.672Z,75.67
2022-11-09T14:52:38.371Z,76.37
2022-11-09T14:55:42.217Z,76.45
2022-11-09T14:58:45.776Z,76.40
2022-11-09T15:02:01.970Z,77.19
2022-11-09T15:05:06.856Z,77.55
2022-11-09T15:08:16.639Z,77.73
2022-11-09T15:11:19.334Z,78.68
2022-11-09T15:14:27.539Z,79.49
2022-11-09T15:17:33.404Z,80.06
2022-11-09T15:20:36.068Z,80.51
2022-11-09T15:23:40.319Z,79.74
2022-11-09T15:26:44.615Z,79.36
2022-11-09T15:29:47.300Z,79.21
2022-11-09T15:32:51.628Z,79.61
2022-11-09T15:35:56.384Z,79.05
2022-11-09T15:39:03.046Z,78.60
2022-11-09T15:42:06.137Z,78.22
2022-11-09T15:45:09.702Z,77.45
2022-11-09T15:48:13.896Z,76.52
2022-11-09T15:51:16.946Z,76.63
2022-11-09T15:54:19.668Z,76.07
2022-11-09T15:57:22.883Z,76.03
2022-11-09T16:00:25.912Z,76.19
2022-11-09T16:03:29.870Z,76.33
2022-11-09T16:06:32.675Z,76.37
2022-11-09T16:09:35.403Z,76.88
2022-11-09T16:12:42.512Z,77.27
2022-11-09T16:15:48.733Z,77.98
2022-11-09T16:18:52.742Z,78.77
2022-11-09T16:21:55.603Z,79.21
2022-11-09T16:24:58.539Z,80.06
2022-11-09T16:28:01.252Z,80.83
2022-11-09T16:31:04.143Z,81.48
2022-11-09T16:34:08.271Z,81.56
2022-11-09T16:37:11.009Z,82.35
2022-11-09T16:40:15.815Z,83.07
2022-11-09T16:43:18.583Z,83.96
2022-11-09T16:46:24.070Z,83.74
2022-11-09T16:49:27.991Z,83.92
2022-11-09T16:52:30.602Z,84.38
2022-11-09T16:55:33.262Z,84.59
2022-11-09T16:58:36.487Z,84.04
2022-11-09T17:01:39.280Z,83.62
2022-11-09T17:04:43.249Z,84.00
2022-11-09T17:07:47.859Z,83.87
2022-11-09T17:10:50.443Z,83.51
2022-11-09T17:13:57.331Z,83.76
2022-11-09T17:17:00.306Z,83.90
2022-11-09T17:20:06.965Z,83.60
2022-11-09T17:23:10.211Z,83.61
2022-11-09T17:26:13.776Z,83.08
2022-11-09T17:29:16.384Z,83.33
2022-11-09T17:32:22.481Z,83.57
2022-11-09T17:35:26.711Z,83.78
2022-11-09T17:38:30.024Z,84.24
2022-11-09T17:41:32.721Z,84.76
2022-11-09T17:44:35.573Z,85.28
2022-11-09T17:47:38.202Z,85.27
2022-11-09T17:50:42.428Z,85.28
2022-11-09T17:53:45.465Z,85.85
2022-11-09T17:56:48.104Z,86.26
2022-11-09T17:59:50.668Z,86.35
2022-11-09T18:02:55.490Z,86.58
2022-11-09T18:05:59.556Z,86.69
2022-11-09T18:12:25.145Z,87.00
2022-11-09T18:15:28.114Z,87.61
2022-11-09T18:18:30.839Z,87.64
2022-11-09T18:21:41.612Z,87.74
2022-11-09T18:24:44.261Z,87.45
2022-11-09T18:27:47.537Z,87.65
2022-11-09T18:30:50.296Z,87.36
2022-11-09T18:33:53.227Z,87.54
2022-11-09T18:36:57.104Z,87.71
2022-11-09T18:39:59.767Z,88.15
2022-11-09T18:43:02.458Z,87.87
2022-11-09T18:46:06.797Z,87.90
2022-11-09T18:49:14.111Z,87.71
2022-11-09T18:52:18.604Z,87.44
2022-11-09T18:55:21.276Z,87.46
2022-11-09T18:58:24.379Z,86.92
2022-11-09T19:01:27.444Z,86.86
2022-11-09T19:04:30.084Z,87.66
2022-11-09T19:07:34.110Z,87.82
2022-11-09T19:10:37.216Z,87.97
2022-11-09T19:13:40.098Z,87.37
2022-11-09T19:16:42.823Z,87.72
2022-11-09T19:19:45.457Z,87.83
2022-11-09T19:22:49.456Z,87.68
2022-11-09T19:25:52.146Z,85.76
2022-11-09T19:28:54.837Z,85.34
2022-11-09T19:31:57.541Z,85.74
2022-11-09T19:35:00.189Z,85.44
2022-11-09T19:38:06.509Z,85.65
2022-11-09T19:41:10.183Z,85.36
2022-11-09T19:44:14.849Z,85.09
2022-11-09T19:47:17.459Z,84.98
2022-11-09T19:50:20.210Z,84.69
2022-11-09T19:53:24.358Z,84.14
2022-11-09T19:56:28.710Z,84.56
2022-11-09T19:59:31.244Z,84.20
2022-11-09T20:02:33.894Z,84.91
2022-11-09T20:05:36.967Z,84.47
2022-11-09T20:08:41.229Z,85.48
2022-11-09T20:12:01.898Z,86.18
2022-11-09T20:15:04.890Z,86.71
2022-11-09T20:18:07.518Z,87.41
2022-11-09T20:21:10.379Z,87.21
2022-11-09T20:24:15.224Z,87.18
2022-11-09T20:27:17.878Z,87.66
2022-11-09T20:30:20.731Z,87.04
2022-11-09T20:33:23.621Z,85.98
2022-11-09T20:36:26.476Z,86.41
2022-11-09T20:39:30.426Z,85.92
2022-11-09T20:42:33.254Z,85.67
2022-11-09T20:45:37.181Z,85.84
2022-11-09T20:48:53.595Z,85.20
2022-11-09T20:51:57.086Z,85.19
2022-11-09T20:55:01.103Z,85.37
2022-11-09T20:58:03.770Z,85.84
2022-11-09T21:01:09.175Z,86.02
2022-11-09T21:04:11.967Z,86.16
2022-11-09T21:07:14.636Z,84.69
2022-11-09T21:10:19.115Z,84.30
2022-11-09T21:13:22.163Z,84.49
2022-11-09T21:16:25.096Z,84.10
2022-11-09T21:19:27.800Z,83.40
2022-11-09T21:22:44.296Z,83.37
2022-11-09T21:26:05.571Z,83.84
2022-11-09T21:29:30.288Z,83.72
2022-11-09T21:32:33.100Z,83.68
2022-11-09T21:35:36.138Z,82.37
2022-11-09T21:38:38.834Z,81.98
2022-11-09T21:41:42.868Z,81.93
2022-11-09T21:44:45.597Z,80.25
2022-11-09T21:47:48.352Z,80.23
2022-11-09T21:50:52.782Z,81.20
2022-11-09T21:53:55.366Z,82.50
2022-11-09T21:56:59.759Z,83.25
2022-11-09T22:00:02.545Z,84.81
2022-11-09T22:03:05.208Z,84.68
2022-11-09T22:06:07.955Z,85.16
2022-11-09T22:09:14.637Z,85.34
2022-11-09T22:12:36.293Z,85.98
2022-11-09T22:15:56.822Z,86.45
2022-11-09T22:19:17.133Z,86.83
2022-11-09T22:22:19.834Z,87.29
2022-11-09T22:25:22.465Z,88.07
2022-11-09T22:28:26.433Z,87.84
2022-11-09T22:31:29.165Z,88.49
2022-11-09T22:34:32.016Z,88.07
2022-11-09T22:37:34.768Z,88.36
2022-11-09T22:40:37.540Z,88.58
2022-11-09T22:43:43.015Z,88.23
2022-11-09T22:46:45.616Z,88.89
2022-11-09T22:49:48.218Z,89.08
2022-11-09T22:52:53.907Z,88.51
2022-11-09T22:55:57.920Z,88.88
2022-11-09T22:59:02.064Z,88.76
2022-11-09T23:02:04.686Z,88.35
2022-11-09T23:05:08.859Z,88.87
2022-11-09T23:08:11.872Z,89.04
2022-11-09T23:11:16.486Z,88.93
2022-11-09T23:14:40.561Z,88.83
2022-11-09T23:18:00.432Z,88.93
2022-11-09T23:21:02.989Z,88.69
2022-11-09T23:24:28.601Z,88.11
2022-11-09T23:27:31.242Z,88.64
2022-11-09T23:30:35.202Z,88.23
2022-11-09T23:33:38.126Z,87.31
2022-11-09T23:36:40.788Z,87.36
2022-11-09T23:39:43.373Z,87.62
2022-11-09T23:42:45.991Z,87.74
2022-11-09T23:45:49.915Z,88.00
2022-11-09T23:48:52.549Z,87.96
2022-11-09T23:51:55.177Z,88.09
2022-11-09T23:54:57.913Z,88.35
2022-11-09T23:58:02.534Z,87.66
